createdAt,value
2018-02-03T00:00:04.499Z,5.37
2018-02-03T00:02:31.674Z,4.13
2018-02-03T00:04:59.013Z,3.63
2018-02-03T00:07:26.354Z,5.20
2018-02-03T00:09:53.708Z,3.77
2018-02-03T00:12:21.031Z,4.50
2018-02-03T00:14:48.389Z,3.90
2018-02-03T00:17:15.710Z,3.70
2018-02-03T00:19:43.134Z,3.80
2018-02-03T00:22:10.461Z,3.57
2018-02-03T00:24:37.856Z,3.10
2018-02-03T00:27:05.201Z,3.50
2018-02-03T00:29:32.517Z,4.13
2018-02-03T00:31:59.870Z,3.70
2018-02-03T00:34:27.195Z,3.23
2018-02-03T00:36:54.548Z,3.20
2018-02-03T00:39:21.875Z,3.30
2018-02-03T00:41:49.229Z,3.70
2018-02-03T00:44:16.586Z,3.43
2018-02-03T00:46:43.905Z,3.63
2018-02-03T00:49:11.260Z,4.57
2018-02-03T00:51:38.591Z,4.10
2018-02-03T00:54:05.949Z,4.50
2018-02-03T00:56:33.317Z,4.60
2018-02-03T00:59:00.671Z,4.97
2018-02-03T01:01:28.103Z,4.70
2018-02-03T01:03:55.493Z,4.77
2018-02-03T01:06:22.820Z,5.10
2018-02-03T01:08:50.147Z,5.37
2018-02-03T01:11:17.504Z,4.83
2018-02-03T01:13:44.843Z,4.67
2018-02-03T01:16:12.214Z,4.73
2018-02-03T01:18:39.560Z,4.87
2018-02-03T01:21:06.943Z,4.47
2018-02-03T01:23:34.276Z,5.47
2018-02-03T01:26:01.625Z,4.60
2018-02-03T01:28:28.981Z,4.33
2018-02-03T01:30:56.362Z,4.30
2018-02-03T01:33:23.704Z,4.00
2018-02-03T01:35:51.034Z,4.40
2018-02-03T01:38:18.479Z,3.93
2018-02-03T01:40:45.801Z,4.20
2018-02-03T01:43:13.159Z,3.70
2018-02-03T01:45:40.504Z,4.07
2018-02-03T01:48:07.854Z,4.20
2018-02-03T01:50:35.249Z,4.30
2018-02-03T01:53:02.599Z,4.80
2018-02-03T01:55:29.963Z,4.77
2018-02-03T01:57:57.371Z,4.67
2018-02-03T02:00:24.826Z,4.93
2018-02-03T02:02:52.199Z,5.00
2018-02-03T02:05:19.533Z,4.67
2018-02-03T02:07:46.907Z,4.67
2018-02-03T02:10:14.232Z,6.10
2018-02-03T02:12:41.607Z,4.97
2018-02-03T02:15:08.941Z,6.10
2018-02-03T02:17:36.309Z,5.20
2018-02-03T02:20:03.643Z,4.73
2018-02-03T02:22:31.001Z,4.00
2018-02-03T02:24:58.326Z,6.03
2018-02-03T02:27:25.695Z,4.93
2018-02-03T02:29:53.021Z,5.90
2018-02-03T02:32:20.342Z,4.90
2018-02-03T02:34:47.701Z,5.80
2018-02-03T02:37:15.030Z,5.40
2018-02-03T02:39:42.380Z,5.00
2018-02-03T02:42:09.746Z,5.30
2018-02-03T02:44:37.112Z,5.90
2018-02-03T02:47:04.445Z,5.90
2018-02-03T02:49:31.802Z,5.70
2018-02-03T02:51:59.133Z,5.63
2018-02-03T02:54:26.459Z,5.63
2018-02-03T02:56:53.814Z,5.90
2018-02-03T02:59:21.237Z,6.13
2018-02-03T03:01:48.695Z,6.97
2018-02-03T03:04:16.018Z,5.67
2018-02-03T03:06:43.379Z,6.70
2018-02-03T03:09:10.708Z,6.07
2018-02-03T03:11:38.117Z,5.63
2018-02-03T03:14:05.472Z,5.90
2018-02-03T03:16:32.825Z,6.03
2018-02-03T03:19:00.175Z,6.30
2018-02-03T03:21:27.518Z,5.90
2018-02-03T03:23:54.885Z,5.73
2018-02-03T03:26:22.221Z,5.90
2018-02-03T03:28:50.417Z,6.40
2018-02-03T03:31:17.772Z,6.03
2018-02-03T03:33:45.741Z,5.13
2018-02-03T03:36:13.100Z,6.30
2018-02-03T03:38:40.438Z,6.10
2018-02-03T03:41:07.787Z,5.50
2018-02-03T03:43:35.106Z,6.93
2018-02-03T03:46:02.516Z,6.23
2018-02-03T03:48:29.851Z,7.07
2018-02-03T03:50:57.198Z,5.80
2018-02-03T03:53:24.592Z,6.68
2018-02-03T03:55:51.940Z,6.28
2018-02-03T03:58:19.306Z,5.97
2018-02-03T04:00:46.676Z,5.12
2018-02-03T04:03:14.039Z,6.97
2018-02-03T04:05:41.402Z,6.05
2018-02-03T04:08:08.762Z,6.30
2018-02-03T04:10:36.117Z,6.20
2018-02-03T04:13:03.470Z,6.37
2018-02-03T04:15:30.838Z,6.75
2018-02-03T04:17:58.170Z,5.93
2018-02-03T04:20:25.544Z,6.07
2018-02-03T04:22:52.941Z,6.27
2018-02-03T04:25:20.352Z,5.95
2018-02-03T04:27:47.727Z,6.30
2018-02-03T04:30:15.102Z,5.87
2018-02-03T04:32:42.465Z,7.10
2018-02-03T04:35:09.828Z,6.35
2018-02-03T04:37:37.254Z,6.10
2018-02-03T04:40:04.651Z,5.32
2018-02-03T04:42:32.010Z,5.95
2018-02-03T04:44:59.372Z,6.65
2018-02-03T04:47:26.718Z,6.22
2018-02-03T04:49:54.091Z,6.12
2018-02-03T04:52:21.416Z,5.78
2018-02-03T04:54:48.801Z,6.53
2018-02-03T04:57:16.133Z,6.75
2018-02-03T04:59:43.455Z,6.00
2018-02-03T05:02:10.816Z,6.72
2018-02-03T05:04:38.190Z,6.70
2018-02-03T05:07:05.545Z,6.70
2018-02-03T05:09:32.993Z,6.23
2018-02-03T05:12:00.357Z,6.83
2018-02-03T05:14:27.696Z,6.70
2018-02-03T05:16:55.062Z,6.90
2018-02-03T05:19:22.512Z,7.32
2018-02-03T05:21:49.850Z,6.95
2018-02-03T05:24:17.201Z,7.47
2018-02-03T05:26:44.552Z,7.67
2018-02-03T05:29:11.927Z,7.00
2018-02-03T05:31:39.388Z,7.05
2018-02-03T05:34:06.720Z,7.00
2018-02-03T05:36:34.069Z,7.10
2018-02-03T05:39:01.419Z,7.07
2018-02-03T05:41:28.797Z,6.17
2018-02-03T05:43:56.132Z,6.97
2018-02-03T05:46:23.573Z,6.82
2018-02-03T05:48:50.910Z,7.60
2018-02-03T05:51:18.242Z,7.47
2018-02-03T05:53:45.684Z,7.25
2018-02-03T05:56:13.119Z,7.53
2018-02-03T05:58:40.478Z,8.10
2018-02-03T06:01:07.807Z,7.32
2018-02-03T06:03:35.177Z,6.97
2018-02-03T06:06:02.523Z,7.62
2018-02-03T06:08:29.905Z,8.20
2018-02-03T06:10:57.275Z,9.05
2018-02-03T06:13:24.619Z,9.63
2018-02-03T06:15:52.085Z,10.20
2018-02-03T06:18:19.421Z,8.90
2018-02-03T06:20:46.783Z,8.57
2018-02-03T06:23:14.115Z,10.40
2018-02-03T06:25:41.478Z,9.90
2018-02-03T06:28:08.833Z,9.30
2018-02-03T06:30:36.177Z,8.63
2018-02-03T06:33:03.526Z,8.03
2018-02-03T06:35:30.853Z,8.23
2018-02-03T06:37:58.206Z,8.30
2018-02-03T06:40:25.546Z,8.88
2018-02-03T06:42:52.918Z,8.30
2018-02-03T06:45:20.293Z,9.13
2018-02-03T06:47:47.669Z,9.50
2018-02-03T06:50:15.011Z,8.50
2018-02-03T06:52:42.338Z,8.63
2018-02-03T06:55:09.767Z,9.10
2018-02-03T06:57:37.097Z,9.50
2018-02-03T07:00:04.461Z,9.73
2018-02-03T07:02:31.814Z,10.27
2018-02-03T07:04:59.255Z,9.43
2018-02-03T07:07:26.588Z,9.70
2018-02-03T07:09:53.974Z,9.75
2018-02-03T07:12:21.346Z,9.90
2018-02-03T07:14:48.686Z,9.07
2018-02-03T07:17:16.092Z,10.15
2018-02-03T07:19:43.519Z,9.77
2018-02-03T07:22:10.882Z,10.63
2018-02-03T07:24:38.234Z,9.10
2018-02-03T07:27:05.598Z,10.83
2018-02-03T07:29:33.038Z,10.37
2018-02-03T07:32:00.396Z,9.37
2018-02-03T07:34:27.741Z,13.00
2018-02-03T07:36:55.129Z,10.53
2018-02-03T07:39:22.481Z,10.00
2018-02-03T07:41:49.915Z,9.70
2018-02-03T07:44:17.282Z,9.70
2018-02-03T07:46:44.618Z,10.65
2018-02-03T07:49:12.007Z,10.10
2018-02-03T07:51:39.435Z,10.30
2018-02-03T07:54:06.802Z,9.07
2018-02-03T07:56:34.153Z,8.50
2018-02-03T07:59:01.488Z,8.00
2018-02-03T08:01:28.866Z,9.40
2018-02-03T08:03:56.210Z,8.55
2018-02-03T08:06:23.595Z,8.53
2018-02-03T08:08:50.927Z,8.07
2018-02-03T08:11:18.303Z,10.37
2018-02-03T08:13:45.667Z,8.55
2018-02-03T08:16:13.023Z,7.90
2018-02-03T08:18:40.363Z,8.43
2018-02-03T08:21:07.767Z,9.85
2018-02-03T08:23:35.093Z,10.07
2018-02-03T08:26:02.426Z,7.80
2018-02-03T08:28:29.779Z,8.33
2018-02-03T08:30:57.110Z,8.73
2018-02-03T08:33:24.877Z,8.02
2018-02-03T08:35:52.242Z,9.18
2018-02-03T08:38:19.832Z,8.18
2018-02-03T08:40:47.206Z,9.10
2018-02-03T08:43:14.534Z,8.50
2018-02-03T08:45:41.917Z,8.20
2018-02-03T08:48:09.246Z,7.53
2018-02-03T08:50:36.603Z,8.03
2018-02-03T08:53:03.929Z,8.40
2018-02-03T08:55:31.298Z,9.00
2018-02-03T08:57:58.629Z,8.80
2018-02-03T09:00:25.994Z,8.57
2018-02-03T09:02:53.342Z,8.50
2018-02-03T09:05:20.688Z,7.90
2018-02-03T09:07:48.053Z,8.80
2018-02-03T09:10:15.385Z,7.80
2018-02-03T09:12:42.759Z,8.70
2018-02-03T09:15:10.094Z,8.10
2018-02-03T09:17:37.460Z,8.93
2018-02-03T09:20:04.789Z,9.47
2018-02-03T09:22:32.153Z,9.83
2018-02-03T09:24:59.485Z,10.87
2018-02-03T09:27:26.875Z,11.63
2018-02-03T09:29:54.211Z,9.73
2018-02-03T09:32:21.574Z,10.50
2018-02-03T09:34:48.933Z,10.73
2018-02-03T09:37:16.268Z,9.33
2018-02-03T09:39:43.622Z,9.57
2018-02-03T09:42:10.987Z,10.40
2018-02-03T09:44:38.359Z,10.60
2018-02-03T09:47:05.698Z,9.43
2018-02-03T09:49:33.028Z,8.53
2018-02-03T09:52:00.412Z,8.43
2018-02-03T09:54:27.741Z,9.23
2018-02-03T09:56:55.096Z,8.30
2018-02-03T09:59:22.704Z,7.93
2018-02-03T10:01:50.179Z,9.10
2018-02-03T10:04:17.515Z,9.67
2018-02-03T10:06:44.860Z,10.10
2018-02-03T10:09:12.226Z,9.80
2018-02-03T10:11:39.562Z,9.00
2018-02-03T10:14:06.938Z,8.50
2018-02-03T10:16:34.297Z,9.47
2018-02-03T10:19:01.661Z,8.57
2018-02-03T10:21:29.021Z,8.70
2018-02-03T10:23:56.350Z,9.23
2018-02-03T10:26:23.705Z,8.87
2018-02-03T10:28:51.034Z,8.20
2018-02-03T10:31:18.424Z,8.37
2018-02-03T10:33:46.357Z,8.70
2018-02-03T10:36:13.725Z,8.70
2018-02-03T10:38:41.053Z,8.57
2018-02-03T10:41:08.391Z,8.83
2018-02-03T10:43:35.751Z,9.20
2018-02-03T10:46:03.089Z,8.57
2018-02-03T10:48:30.445Z,8.50
2018-02-03T10:50:57.768Z,7.17
2018-02-03T10:53:25.135Z,8.50
2018-02-03T10:55:52.461Z,9.67
2018-02-03T10:58:19.814Z,101.03
2018-02-03T11:00:47.291Z,79.67
2018-02-03T11:03:14.647Z,79.57
2018-02-03T11:05:42.022Z,10.83
2018-02-03T11:08:09.365Z,13.27
2018-02-03T11:10:36.742Z,10.60
2018-02-03T11:13:04.089Z,12.00
2018-02-03T11:15:31.478Z,10.30
2018-02-03T11:17:58.825Z,13.13
2018-02-03T11:20:26.196Z,9.07
2018-02-03T11:22:53.561Z,33.60
2018-02-03T11:25:20.903Z,13.20
2018-02-03T11:27:48.267Z,12.50
2018-02-03T11:30:15.614Z,46.40
2018-02-03T11:32:43.020Z,22.57
2018-02-03T11:35:10.344Z,13.20
2018-02-03T11:37:37.770Z,13.30
2018-02-03T11:40:05.086Z,11.33
2018-02-03T11:42:32.461Z,12.60
2018-02-03T11:44:59.836Z,10.53
2018-02-03T11:47:27.180Z,10.63
2018-02-03T11:49:54.532Z,9.97
2018-02-03T11:52:21.861Z,9.60
2018-02-03T11:54:49.300Z,10.47
2018-02-03T11:57:16.658Z,10.73
2018-02-03T11:59:44.063Z,10.73
2018-02-03T12:02:11.948Z,10.60
2018-02-03T12:04:39.289Z,10.40
2018-02-03T12:07:06.687Z,11.00
2018-02-03T12:09:34.026Z,10.87
2018-02-03T12:12:01.391Z,10.20
2018-02-03T12:14:28.758Z,9.83
2018-02-03T12:16:56.284Z,10.93
2018-02-03T12:19:23.619Z,10.00
2018-02-03T12:21:50.953Z,11.10
2018-02-03T12:24:18.315Z,11.10
2018-02-03T12:26:45.653Z,10.20
2018-02-03T12:29:13.022Z,9.27
2018-02-03T12:31:40.357Z,10.27
2018-02-03T12:34:07.711Z,8.40
2018-02-03T12:36:35.042Z,9.67
2018-02-03T12:39:02.406Z,8.90
2018-02-03T12:41:29.767Z,9.73
2018-02-03T12:43:57.110Z,10.17
2018-02-03T12:46:24.468Z,10.40
2018-02-03T12:48:51.808Z,8.83
2018-02-03T12:51:19.163Z,8.47
2018-02-03T12:53:46.489Z,8.43
2018-02-03T12:56:14.110Z,9.07
2018-02-03T12:58:41.436Z,9.03
2018-02-03T13:01:08.774Z,8.20
2018-02-03T13:03:37.122Z,8.67
2018-02-03T13:06:04.474Z,8.20
2018-02-03T13:08:31.829Z,8.87
2018-02-03T13:10:59.164Z,9.00
2018-02-03T13:13:26.522Z,8.60
2018-02-03T13:15:53.877Z,9.43
2018-02-03T13:18:21.368Z,8.20
2018-02-03T13:20:48.774Z,8.80
2018-02-03T13:23:16.134Z,9.13
2018-02-03T13:25:43.466Z,8.83
2018-02-03T13:28:10.802Z,8.13
2018-02-03T13:30:38.162Z,8.93
2018-02-03T13:33:05.518Z,9.52
2018-02-03T13:35:32.899Z,9.60
2018-02-03T13:38:00.232Z,8.90
2018-02-03T13:40:27.594Z,9.30
2018-02-03T13:42:54.927Z,7.90
2018-02-03T13:45:22.291Z,8.80
2018-02-03T13:47:49.623Z,8.27
2018-02-03T13:50:16.987Z,8.10
2018-02-03T13:52:44.329Z,7.83
2018-02-03T13:55:11.658Z,8.67
2018-02-03T13:57:39.010Z,8.90
2018-02-03T14:00:06.363Z,10.07
2018-02-03T14:02:33.726Z,10.40
2018-02-03T14:05:01.161Z,8.67
2018-02-03T14:07:28.548Z,10.30
2018-02-03T14:09:55.882Z,10.00
2018-02-03T14:12:23.214Z,8.07
2018-02-03T14:14:50.653Z,7.60
2018-02-03T14:17:17.974Z,7.13
2018-02-03T14:19:45.325Z,8.07
2018-02-03T14:22:12.653Z,7.67
2018-02-03T14:24:45.754Z,7.43
2018-02-03T14:27:13.104Z,6.43
2018-02-03T14:29:40.436Z,9.40
2018-02-03T14:32:07.794Z,8.50
2018-02-03T14:34:35.130Z,8.33
2018-02-03T14:37:02.493Z,8.93
2018-02-03T14:39:29.823Z,8.37
2018-02-03T14:41:57.182Z,9.37
2018-02-03T14:44:24.540Z,8.67
2018-02-03T14:46:51.922Z,7.60
2018-02-03T14:49:19.259Z,8.67
2018-02-03T14:51:46.589Z,9.13
2018-02-03T14:54:13.958Z,7.70
2018-02-03T14:56:41.292Z,7.60
2018-02-03T14:59:08.646Z,7.57
2018-02-03T15:01:35.982Z,8.00
2018-02-03T15:04:03.363Z,7.60
2018-02-03T15:06:30.767Z,8.20
2018-02-03T15:08:58.097Z,8.27
2018-02-03T15:11:25.464Z,8.37
2018-02-03T15:13:52.806Z,8.90
2018-02-03T15:16:20.165Z,8.27
2018-02-03T15:18:47.509Z,9.00
2018-02-03T15:21:14.882Z,9.33
2018-02-03T15:23:42.228Z,8.48
2018-02-03T15:26:09.563Z,7.70
2018-02-03T15:28:36.914Z,6.60
2018-02-03T15:31:04.353Z,8.20
2018-02-03T15:33:31.698Z,8.20
2018-02-03T15:35:59.026Z,8.07
2018-02-03T15:38:26.383Z,8.63
2018-02-03T15:40:53.722Z,8.40
2018-02-03T15:43:21.075Z,8.40
2018-02-03T15:45:49.013Z,7.87
2018-02-03T15:48:16.404Z,9.40
2018-02-03T15:50:43.741Z,9.37
2018-02-03T15:53:11.074Z,8.80
2018-02-03T15:55:38.443Z,8.63
2018-02-03T15:58:05.805Z,8.60
2018-02-03T16:00:33.168Z,7.70
2018-02-03T16:03:00.496Z,9.43
2018-02-03T16:05:27.865Z,8.07
2018-02-03T16:07:55.204Z,8.07
2018-02-03T16:10:22.531Z,8.07
2018-02-03T16:12:49.890Z,8.77
2018-02-03T16:15:17.209Z,6.10
2018-02-03T16:17:44.565Z,5.53
2018-02-03T16:20:12.347Z,6.10
2018-02-03T16:22:39.804Z,5.97
2018-02-03T16:25:07.134Z,12.03
2018-02-03T16:27:34.604Z,15.83
2018-02-03T16:30:01.935Z,6.93
2018-02-03T16:32:29.266Z,5.70
2018-02-03T16:34:56.634Z,5.30
2018-02-03T16:37:23.969Z,6.07
2018-02-03T16:39:51.321Z,5.60
2018-02-03T16:42:18.733Z,6.10
2018-02-03T16:44:46.086Z,6.37
2018-02-03T16:47:13.416Z,6.30
2018-02-03T16:49:40.765Z,6.07
2018-02-03T16:52:08.082Z,6.70
2018-02-03T16:54:35.432Z,6.73
2018-02-03T16:57:02.791Z,8.07
2018-02-03T16:59:30.216Z,6.50
2018-02-03T17:01:57.568Z,8.53
2018-02-03T17:04:24.899Z,9.30
2018-02-03T17:06:52.256Z,7.93
2018-02-03T17:09:19.590Z,8.77
2018-02-03T17:11:46.928Z,9.47
2018-02-03T17:14:14.408Z,9.30
2018-02-03T17:16:41.913Z,9.90
2018-02-03T17:19:09.602Z,11.00
2018-02-03T17:21:36.994Z,6.43
2018-02-03T17:24:04.334Z,6.70
2018-02-03T17:26:31.666Z,8.00
2018-02-03T17:28:59.146Z,9.03
2018-02-03T17:31:26.512Z,8.03
2018-02-03T17:33:53.834Z,5.80
2018-02-03T17:36:27.048Z,5.77
2018-02-03T17:38:59.982Z,7.27
2018-02-03T17:41:27.342Z,6.93
2018-02-03T17:43:54.686Z,6.57
2018-02-03T17:46:27.735Z,7.20
2018-02-03T17:48:55.093Z,7.50
2018-02-03T17:51:22.458Z,8.10
2018-02-03T17:53:49.810Z,8.00
2018-02-03T17:56:22.859Z,8.70
2018-02-03T17:58:50.208Z,8.50
2018-02-03T18:01:17.536Z,8.37
2018-02-03T18:03:45.181Z,7.90
2018-02-03T18:06:12.503Z,7.43
2018-02-03T18:08:39.829Z,7.20
2018-02-03T18:11:07.180Z,7.70
2018-02-03T18:13:34.517Z,6.03
2018-02-03T18:16:01.874Z,10.83
2018-02-03T18:18:29.367Z,13.70
2018-02-03T18:20:56.747Z,8.50
2018-02-03T18:23:24.085Z,7.90
2018-02-03T18:25:51.416Z,5.20
2018-02-03T18:28:18.790Z,6.73
2018-02-03T18:30:46.148Z,5.47
2018-02-03T18:33:13.505Z,5.83
2018-02-03T18:35:40.916Z,5.60
2018-02-03T18:38:08.275Z,5.47
2018-02-03T18:40:35.599Z,5.60
2018-02-03T18:43:02.930Z,5.83
2018-02-03T18:45:36.117Z,5.60
2018-02-03T18:48:03.437Z,4.70
2018-02-03T18:50:30.885Z,6.00
2018-02-03T18:52:58.210Z,5.33
2018-02-03T18:55:25.565Z,5.20
2018-02-03T18:57:52.910Z,5.03
2018-02-03T19:00:20.244Z,4.77
2018-02-03T19:02:47.603Z,5.50
2018-02-03T19:05:14.922Z,5.13
2018-02-03T19:07:42.321Z,5.23
2018-02-03T19:10:09.624Z,5.40
2018-02-03T19:12:37.006Z,6.10
2018-02-03T19:15:04.337Z,6.00
2018-02-03T19:17:31.730Z,6.32
2018-02-03T19:19:59.082Z,5.30
2018-02-03T19:22:26.415Z,5.87
2018-02-03T19:24:53.798Z,6.67
2018-02-03T19:27:21.127Z,6.10
2018-02-03T19:29:48.490Z,5.13
2018-02-03T19:32:15.834Z,5.00
2018-02-03T19:34:43.211Z,5.37
2018-02-03T19:37:10.605Z,6.20
2018-02-03T19:39:37.934Z,5.53
2018-02-03T19:42:05.283Z,6.47
2018-02-03T19:44:32.683Z,6.20
2018-02-03T19:47:00.099Z,5.90
2018-02-03T19:49:27.421Z,6.97
2018-02-03T19:51:54.797Z,6.37
2018-02-03T19:54:22.121Z,6.30
2018-02-03T19:56:49.448Z,6.90
2018-02-03T19:59:16.811Z,6.47
2018-02-03T20:01:44.157Z,8.20
2018-02-03T20:04:11.518Z,9.70
2018-02-03T20:06:38.896Z,8.43
2018-02-03T20:09:06.374Z,8.10
2018-02-03T20:11:33.738Z,7.47
2018-02-03T20:14:01.153Z,7.70
2018-02-03T20:16:28.610Z,8.43
2018-02-03T20:18:55.954Z,9.40
2018-02-03T20:21:23.319Z,10.40
2018-02-03T20:23:50.663Z,9.73
2018-02-03T20:26:18.066Z,9.37
2018-02-03T20:28:45.391Z,9.00
2018-02-03T20:31:12.791Z,8.63
2018-02-03T20:33:40.197Z,9.23
2018-02-03T20:36:07.613Z,10.27
2018-02-03T20:38:35.002Z,10.43
2018-02-03T20:41:02.349Z,10.93
2018-02-03T20:43:29.706Z,10.27
2018-02-03T20:45:57.044Z,11.33
2018-02-03T20:48:25.361Z,10.47
2018-02-03T20:50:52.686Z,11.07
2018-02-03T20:53:20.109Z,10.80
2018-02-03T20:55:47.460Z,11.80
2018-02-03T20:58:14.868Z,12.30
2018-02-03T21:00:42.215Z,15.00
2018-02-03T21:03:09.589Z,14.67
2018-02-03T21:05:37.046Z,14.07
2018-02-03T21:08:04.392Z,14.10
2018-02-03T21:10:31.808Z,13.70
2018-02-03T21:12:59.149Z,13.50
2018-02-03T21:15:26.531Z,13.50
2018-02-03T21:17:53.914Z,12.60
2018-02-03T21:20:21.358Z,12.67
2018-02-03T21:22:48.765Z,13.30
2018-02-03T21:25:16.185Z,15.03
2018-02-03T21:27:43.518Z,13.40
2018-02-03T21:30:10.862Z,15.03
2018-02-03T21:32:38.261Z,13.80
2018-02-03T21:35:05.603Z,15.47
2018-02-03T21:37:32.958Z,16.90
2018-02-03T21:40:00.340Z,27.90
2018-02-03T21:42:27.729Z,20.20
2018-02-03T21:44:55.120Z,23.77
2018-02-03T21:47:22.491Z,25.03
2018-02-03T21:49:49.826Z,29.63
2018-02-03T21:52:17.242Z,26.60
2018-02-03T21:54:44.576Z,27.60
2018-02-03T21:57:11.951Z,29.07
2018-02-03T21:59:39.366Z,27.13
2018-02-03T22:02:06.712Z,25.83
2018-02-03T22:04:34.170Z,26.13
2018-02-03T22:07:01.502Z,33.70
2018-02-03T22:09:28.883Z,38.80
2018-02-03T22:11:56.274Z,34.77
2018-02-03T22:14:23.733Z,35.40
2018-02-03T22:16:51.067Z,30.03
2018-02-03T22:19:18.403Z,26.10
2018-02-03T22:21:45.772Z,27.87
2018-02-03T22:24:13.118Z,27.50
2018-02-03T22:26:40.481Z,26.80
2018-02-03T22:29:07.871Z,27.67
2018-02-03T22:31:35.312Z,26.27
2018-02-03T22:34:02.662Z,26.97
2018-02-03T22:36:30.084Z,24.20
2018-02-03T22:38:57.419Z,18.73
2018-02-03T22:41:24.799Z,20.00
2018-02-03T22:43:52.170Z,15.07
2018-02-03T22:46:19.512Z,18.20
2018-02-03T22:48:46.873Z,18.10
2018-02-03T22:51:14.210Z,13.20
2018-02-03T22:53:41.573Z,15.53
2018-02-03T22:56:08.918Z,13.20
2018-02-03T22:58:36.283Z,14.57
2018-02-03T23:01:09.221Z,17.60
2018-02-03T23:03:36.652Z,15.60
2018-02-03T23:06:03.991Z,16.10
2018-02-03T23:08:31.983Z,16.80
2018-02-03T23:10:59.927Z,15.80
2018-02-03T23:13:28.585Z,14.30
2018-02-03T23:15:56.989Z,12.70
2018-02-03T23:18:25.173Z,12.17
2018-02-03T23:20:54.138Z,13.20
2018-02-03T23:23:22.383Z,10.50
2018-02-03T23:25:50.706Z,12.23
2018-02-03T23:28:18.610Z,12.30
2018-02-03T23:30:47.975Z,10.90
2018-02-03T23:33:16.478Z,11.80
2018-02-03T23:35:44.325Z,13.07
2018-02-03T23:38:12.191Z,13.47
2018-02-03T23:40:39.858Z,13.23
2018-02-03T23:43:08.135Z,13.03
2018-02-03T23:45:35.794Z,12.37
2018-02-03T23:48:04.175Z,11.53
2018-02-03T23:50:32.167Z,13.13
2018-02-03T23:52:59.647Z,14.40
2018-02-03T23:55:28.262Z,13.87
2018-02-03T23:57:55.971Z,15.20
